sensor_id;sensor_type;location;lat;lon;timestamp;temperature;humidity
16674;DHT22;8450;52.654;10.326;2023-03-08T06:58:10;0.20;99.90
16674;DHT22;8450;52.654;10.326;2023-03-08T07:00:36;0.20;99.90
16674;DHT22;8450;52.654;10.326;2023-03-08T07:03:02;0.10;99.90
16674;DHT22;8450;52.654;10.326;2023-03-08T07:05:27;0.10;99.90
16674;DHT22;8450;52.654;10.326;2023-03-08T07:07:53;0.20;99.90
16674;DHT22;8450;52.654;10.326;2023-03-08T07:10:19;0.20;99.90
16674;DHT22;8450;52.654;10.326;2023-03-08T07:12:47;0.20;99.90
16674;DHT22;8450;52.654;10.326;2023-03-08T07:15:17;0.20;99.90
16674;DHT22;8450;52.654;10.326;2023-03-08T07:17:44;0.20;99.90
16674;DHT22;8450;52.654;10.326;2023-03-08T07:20:11;0.20;99.90
16674;DHT22;8450;52.654;10.326;2023-03-08T07:22:38;0.20;99.90
16674;DHT22;8450;52.654;10.326;2023-03-08T07:25:04;0.20;99.90
16674;DHT22;8450;52.654;10.326;2023-03-08T07:27:29;0.30;99.90
16674;DHT22;8450;52.654;10.326;2023-03-08T07:29:55;0.30;99.90
16674;DHT22;8450;52.654;10.326;2023-03-08T07:32:20;0.30;99.90
16674;DHT22;8450;52.654;10.326;2023-03-08T07:34:47;0.30;99.90
16674;DHT22;8450;52.654;10.326;2023-03-08T07:37:14;0.30;99.90
16674;DHT22;8450;52.654;10.326;2023-03-08T07:39:41;0.30;99.90
16674;DHT22;8450;52.654;10.326;2023-03-08T07:42:09;0.30;99.90
16674;DHT22;8450;52.654;10.326;2023-03-08T07:44:36;0.40;99.90
16674;DHT22;8450;52.654;10.326;2023-03-08T07:47:02;0.40;99.90
16674;DHT22;8450;52.654;10.326;2023-03-08T07:49:27;0.40;99.90
16674;DHT22;8450;52.654;10.326;2023-03-08T07:51:53;0.40;99.90
16674;DHT22;8450;52.654;10.326;2023-03-08T07:54:19;0.40;99.90
16674;DHT22;8450;52.654;10.326;2023-03-08T07:56:44;0.40;99.90
16674;DHT22;8450;52.654;10.326;2023-03-08T07:59:10;0.50;99.90
16674;DHT22;8450;52.654;10.326;2023-03-08T08:01:36;0.50;99.90
16674;DHT22;8450;52.654;10.326;2023-03-08T08:04:01;0.50;99.90
16674;DHT22;8450;52.654;10.326;2023-03-08T08:06:27;0.50;99.90
16674;DHT22;8450;52.654;10.326;2023-03-08T08:08:54;0.50;99.90
16674;DHT22;8450;52.654;10.326;2023-03-08T08:11:20;0.60;99.90
16674;DHT22;8450;52.654;10.326;2023-03-08T08:13:46;0.60;99.90
16674;DHT22;8450;52.654;10.326;2023-03-08T08:16:12;0.60;99.90
16674;DHT22;8450;52.654;10.326;2023-03-08T08:18:38;0.60;99.90
16674;DHT22;8450;52.654;10.326;2023-03-08T08:21:08;0.70;99.90
16674;DHT22;8450;52.654;10.326;2023-03-08T08:23:35;0.70;99.90
16674;DHT22;8450;52.654;10.326;2023-03-08T08:26:13;0.70;99.90
16674;DHT22;8450;52.654;10.326;2023-03-08T08:28:40;0.70;99.90
16674;DHT22;8450;52.654;10.326;2023-03-08T08:31:12;0.80;99.90
16674;DHT22;8450;52.654;10.326;2023-03-08T08:33:38;0.80;99.90
16674;DHT22;8450;52.654;10.326;2023-03-08T08:36:06;0.80;99.90
16674;DHT22;8450;52.654;10.326;2023-03-08T08:38:32;0.90;99.90
16674;DHT22;8450;52.654;10.326;2023-03-08T08:40:59;0.90;99.90
16674;DHT22;8450;52.654;10.326;2023-03-08T08:43:25;0.90;99.90
16674;DHT22;8450;52.654;10.326;2023-03-08T08:48:33;1.00;99.90
16674;DHT22;8450;52.654;10.326;2023-03-08T08:50:59;1.10;99.90
16674;DHT22;8450;52.654;10.326;2023-03-08T08:53:26;1.10;99.90
16674;DHT22;8450;52.654;10.326;2023-03-08T08:55:51;1.10;99.90
16674;DHT22;8450;52.654;10.326;2023-03-08T08:58:17;1.20;99.90
16674;DHT22;8450;52.654;10.326;2023-03-08T09:00:43;1.20;99.90
16674;DHT22;8450;52.654;10.326;2023-03-08T09:03:09;1.30;99.90
16674;DHT22;8450;52.654;10.326;2023-03-08T09:05:38;1.30;99.90
16674;DHT22;8450;52.654;10.326;2023-03-08T09:08:04;1.40;99.90
16674;DHT22;8450;52.654;10.326;2023-03-08T09:10:33;1.40;99.90
16674;DHT22;8450;52.654;10.326;2023-03-08T09:12:58;1.50;99.90
16674;DHT22;8450;52.654;10.326;2023-03-08T09:18:04;1.60;99.90
16674;DHT22;8450;52.654;10.326;2023-03-08T09:20:30;1.70;99.90
16674;DHT22;8450;52.654;10.326;2023-03-08T09:22:55;1.70;99.90
16674;DHT22;8450;52.654;10.326;2023-03-08T09:28:03;1.80;99.90
16674;DHT22;8450;52.654;10.326;2023-03-08T09:30:29;1.90;99.90
16674;DHT22;8450;52.654;10.326;2023-03-08T09:32:57;1.90;99.90
16674;DHT22;8450;52.654;10.326;2023-03-08T09:38:02;2.00;99.90
16674;DHT22;8450;52.654;10.326;2023-03-08T09:40:36;2.00;99.90
16674;DHT22;8450;52.654;10.326;2023-03-08T09:43:04;2.10;99.90
16674;DHT22;8450;52.654;10.326;2023-03-08T09:48:18;2.10;99.90
16674;DHT22;8450;52.654;10.326;2023-03-08T09:50:49;2.10;99.90
16674;DHT22;8450;52.654;10.326;2023-03-08T09:56:02;2.20;99.90
16674;DHT22;8450;52.654;10.326;2023-03-08T10:01:38;2.30;99.90
16674;DHT22;8450;52.654;10.326;2023-03-08T10:04:21;2.30;99.90
16674;DHT22;8450;52.654;10.326;2023-03-08T10:09:40;2.40;99.90
16674;DHT22;8450;52.654;10.326;2023-03-08T10:12:22;2.50;99.90
16674;DHT22;8450;52.654;10.326;2023-03-08T10:14:56;2.50;99.90
16674;DHT22;8450;52.654;10.326;2023-03-08T10:17:38;2.50;99.90
16674;DHT22;8450;52.654;10.326;2023-03-08T10:20:24;2.50;99.90
16674;DHT22;8450;52.654;10.326;2023-03-08T10:23:01;2.50;99.90
16674;DHT22;8450;52.654;10.326;2023-03-08T10:25:29;2.60;99.90
16674;DHT22;8450;52.654;10.326;2023-03-08T10:27:59;2.60;99.90
16674;DHT22;8450;52.654;10.326;2023-03-08T10:30:33;2.60;99.90
16674;DHT22;8450;52.654;10.326;2023-03-08T10:33:04;2.60;99.90
16674;DHT22;8450;52.654;10.326;2023-03-08T10:35:58;2.60;99.90
16674;DHT22;8450;52.654;10.326;2023-03-08T10:38:22;2.60;99.90
16674;DHT22;8450;52.654;10.326;2023-03-08T10:40:48;2.70;99.90
16674;DHT22;8450;52.654;10.326;2023-03-08T10:43:29;2.60;99.90
16674;DHT22;8450;52.654;10.326;2023-03-08T10:46:03;2.70;99.90
16674;DHT22;8450;52.654;10.326;2023-03-08T10:48:29;2.70;99.90
16674;DHT22;8450;52.654;10.326;2023-03-08T10:51:00;2.70;99.90
16674;DHT22;8450;52.654;10.326;2023-03-08T10:53:26;2.70;99.90
16674;DHT22;8450;52.654;10.326;2023-03-08T10:55:55;2.80;99.90
16674;DHT22;8450;52.654;10.326;2023-03-08T10:58:30;2.80;99.90
16674;DHT22;8450;52.654;10.326;2023-03-08T11:00:59;2.80;99.90
16674;DHT22;8450;52.654;10.326;2023-03-08T11:03:25;2.90;99.90
16674;DHT22;8450;52.654;10.326;2023-03-08T11:06:03;2.90;99.90
16674;DHT22;8450;52.654;10.326;2023-03-08T11:08:35;2.90;99.90
16674;DHT22;8450;52.654;10.326;2023-03-08T11:11:07;2.90;99.90
16674;DHT22;8450;52.654;10.326;2023-03-08T11:13:54;3.00;99.90
16674;DHT22;8450;52.654;10.326;2023-03-08T11:21:51;3.10;99.90
16674;DHT22;8450;52.654;10.326;2023-03-08T11:27:29;3.10;99.90
16674;DHT22;8450;52.654;10.326;2023-03-08T11:33:43;3.20;99.90
16674;DHT22;8450;52.654;10.326;2023-03-08T11:36:16;3.20;99.90
16674;DHT22;8450;52.654;10.326;2023-03-08T11:38:51;3.30;99.90
16674;DHT22;8450;52.654;10.326;2023-03-08T11:47:30;3.30;99.90
16674;DHT22;8450;52.654;10.326;2023-03-08T11:50:21;3.30;99.90
16674;DHT22;8450;52.654;10.326;2023-03-08T11:53:03;3.40;99.90
16674;DHT22;8450;52.654;10.326;2023-03-08T11:58:27;3.40;99.90
16674;DHT22;8450;52.654;10.326;2023-03-08T12:01:08;3.50;99.90
16674;DHT22;8450;52.654;10.326;2023-03-08T12:03:46;3.50;99.90
16674;DHT22;8450;52.654;10.326;2023-03-08T12:06:19;3.50;99.90
16674;DHT22;8450;52.654;10.326;2023-03-08T12:11:27;3.60;99.90
16674;DHT22;8450;52.654;10.326;2023-03-08T12:13:57;3.60;99.90
16674;DHT22;8450;52.654;10.326;2023-03-08T12:16:32;3.60;99.90
16674;DHT22;8450;52.654;10.326;2023-03-08T12:22:20;3.60;99.90
16674;DHT22;8450;52.654;10.326;2023-03-08T12:25:21;3.70;99.90
16674;DHT22;8450;52.654;10.326;2023-03-08T12:27:58;3.70;99.90
16674;DHT22;8450;52.654;10.326;2023-03-08T12:30:53;3.70;99.90
16674;DHT22;8450;52.654;10.326;2023-03-08T12:33:22;3.70;99.90
16674;DHT22;8450;52.654;10.326;2023-03-08T12:40:51;3.80;99.90
16674;DHT22;8450;52.654;10.326;2023-03-08T12:45:58;3.80;99.90
16674;DHT22;8450;52.654;10.326;2023-03-08T12:51:20;3.80;99.90
16674;DHT22;8450;52.654;10.326;2023-03-08T12:56:48;3.80;99.90
16674;DHT22;8450;52.654;10.326;2023-03-08T13:01:44;3.90;99.90
16674;DHT22;8450;52.654;10.326;2023-03-08T13:09:29;3.90;99.90
16674;DHT22;8450;52.654;10.326;2023-03-08T13:14:40;4.00;99.90
16674;DHT22;8450;52.654;10.326;2023-03-08T13:19:50;4.00;99.90
16674;DHT22;8450;52.654;10.326;2023-03-08T13:25:32;4.00;99.90
16674;DHT22;8450;52.654;10.326;2023-03-08T13:28:16;3.90;99.90
16674;DHT22;8450;52.654;10.326;2023-03-08T13:30:44;3.90;99.90
16674;DHT22;8450;52.654;10.326;2023-03-08T13:33:18;3.80;99.90
16674;DHT22;8450;52.654;10.326;2023-03-08T13:41:40;3.70;99.90
16674;DHT22;8450;52.654;10.326;2023-03-08T13:44:28;3.60;99.90
16674;DHT22;8450;52.654;10.326;2023-03-08T13:46:59;3.50;99.90
16674;DHT22;8450;52.654;10.326;2023-03-08T13:49:28;3.50;99.90
16674;DHT22;8450;52.654;10.326;2023-03-08T13:51:58;3.40;99.90
16674;DHT22;8450;52.654;10.326;2023-03-08T13:54:29;3.30;99.90
16674;DHT22;8450;52.654;10.326;2023-03-08T13:57:04;3.20;99.90
16674;DHT22;8450;52.654;10.326;2023-03-08T13:59:30;3.20;99.90
16674;DHT22;8450;52.654;10.326;2023-03-08T14:01:56;3.20;99.90
16674;DHT22;8450;52.654;10.326;2023-03-08T14:04:25;3.10;99.90
16674;DHT22;8450;52.654;10.326;2023-03-08T14:06:56;3.10;99.90
16674;DHT22;8450;52.654;10.326;2023-03-08T14:09:22;3.00;99.90
16674;DHT22;8450;52.654;10.326;2023-03-08T14:11:55;3.00;99.90
16674;DHT22;8450;52.654;10.326;2023-03-08T14:14:27;2.90;99.90
16674;DHT22;8450;52.654;10.326;2023-03-08T14:16:53;2.90;99.90
16674;DHT22;8450;52.654;10.326;2023-03-08T14:19:21;2.90;99.90
16674;DHT22;8450;52.654;10.326;2023-03-08T14:22:03;2.80;99.90
16674;DHT22;8450;52.654;10.326;2023-03-08T14:24:34;2.80;99.90
16674;DHT22;8450;52.654;10.326;2023-03-08T14:30:16;2.70;99.90
16674;DHT22;8450;52.654;10.326;2023-03-08T14:38:28;2.60;99.90
16674;DHT22;8450;52.654;10.326;2023-03-08T14:40:55;2.50;99.90
16674;DHT22;8450;52.654;10.326;2023-03-08T14:43:23;2.50;99.90
16674;DHT22;8450;52.654;10.326;2023-03-08T14:48:22;2.50;99.90
16674;DHT22;8450;52.654;10.326;2023-03-08T14:51:26;2.50;99.90
16674;DHT22;8450;52.654;10.326;2023-03-08T14:54:18;2.40;99.90
16674;DHT22;8450;52.654;10.326;2023-03-08T14:56:42;2.40;99.90
16674;DHT22;8450;52.654;10.326;2023-03-08T14:59:09;2.40;99.90
16674;DHT22;8450;52.654;10.326;2023-03-08T15:01:36;2.40;99.90
16674;DHT22;8450;52.654;10.326;2023-03-08T15:04:03;2.40;99.90
16674;DHT22;8450;52.654;10.326;2023-03-08T15:06:38;2.40;99.90
16674;DHT22;8450;52.654;10.326;2023-03-08T15:09:06;2.30;99.90
16674;DHT22;8450;52.654;10.326;2023-03-08T15:11:32;2.30;99.90
16674;DHT22;8450;52.654;10.326;2023-03-08T15:13:59;2.30;99.90
16674;DHT22;8450;52.654;10.326;2023-03-08T15:19:06;2.20;99.90
16674;DHT22;8450;52.654;10.326;2023-03-08T15:21:34;2.20;99.90
16674;DHT22;8450;52.654;10.326;2023-03-08T15:24:01;2.20;99.90
16674;DHT22;8450;52.654;10.326;2023-03-08T15:34:30;2.10;99.90
16674;DHT22;8450;52.654;10.326;2023-03-08T15:39:36;2.10;99.90
16674;DHT22;8450;52.654;10.326;2023-03-08T15:42:01;2.10;99.90
16674;DHT22;8450;52.654;10.326;2023-03-08T15:44:27;2.10;99.90
16674;DHT22;8450;52.654;10.326;2023-03-08T15:46:53;2.10;99.90
16674;DHT22;8450;52.654;10.326;2023-03-08T15:49:18;2.00;99.90
16674;DHT22;8450;52.654;10.326;2023-03-08T15:51:44;2.00;99.90
16674;DHT22;8450;52.654;10.326;2023-03-08T15:54:10;2.00;99.90
16674;DHT22;8450;52.654;10.326;2023-03-08T15:56:35;2.00;99.90
16674;DHT22;8450;52.654;10.326;2023-03-08T15:59:01;2.00;99.90
16674;DHT22;8450;52.654;10.326;2023-03-08T16:01:27;1.90;99.90
16674;DHT22;8450;52.654;10.326;2023-03-08T16:03:54;1.90;99.90
